createdAt,value
2018-02-13T00:00:20.105Z,1012.31
2018-02-13T00:01:20.035Z,1012.30
2018-02-13T00:02:20.122Z,1012.27
2018-02-13T00:03:19.974Z,1012.30
2018-02-13T00:04:20.035Z,1012.32
2018-02-13T00:05:19.912Z,1012.29
2018-02-13T00:06:19.937Z,1012.29
2018-02-13T00:07:19.851Z,1012.30
2018-02-13T00:08:19.849Z,1012.26
2018-02-13T00:09:19.786Z,1012.30
2018-02-13T00:10:19.859Z,1012.28
2018-02-13T00:11:19.724Z,1012.24
2018-02-13T00:12:19.770Z,1012.26
2018-02-13T00:13:19.662Z,1012.27
2018-02-13T00:14:19.682Z,1012.28
2018-02-13T00:15:19.598Z,1012.28
2018-02-13T00:16:19.587Z,1012.30
2018-02-13T00:17:19.536Z,1012.28
2018-02-13T00:18:19.602Z,1012.29
2018-02-13T00:19:19.468Z,1012.29
2018-02-13T00:20:19.604Z,1012.31
2018-02-13T00:21:19.600Z,1012.31
2018-02-13T00:22:19.378Z,1012.32
2018-02-13T00:23:19.516Z,1012.31
2018-02-13T00:24:19.314Z,1012.27
2018-02-13T00:25:19.425Z,1012.31
2018-02-13T00:26:19.252Z,1012.29
2018-02-13T00:27:19.222Z,1012.29
2018-02-13T00:28:19.187Z,1012.27
2018-02-13T00:29:19.350Z,1012.27
2018-02-13T00:30:19.127Z,1012.27
2018-02-13T00:31:19.260Z,1012.24
2018-02-13T00:32:19.063Z,1012.25
2018-02-13T00:33:19.174Z,1012.23
2018-02-13T00:34:19.003Z,1012.23
2018-02-13T00:35:19.088Z,1012.23
2018-02-13T00:36:18.936Z,1012.22
2018-02-13T00:37:19.102Z,1012.22
2018-02-13T00:38:18.872Z,1012.20
2018-02-13T00:39:19.008Z,1012.24
2018-02-13T00:40:18.810Z,1012.21
2018-02-13T00:41:18.923Z,1012.24
2018-02-13T00:42:18.750Z,1012.27
2018-02-13T00:43:18.832Z,1012.20
2018-02-13T00:44:18.685Z,1012.22
2018-02-13T00:45:18.846Z,1012.24
2018-02-13T00:46:18.622Z,1012.19
2018-02-13T00:47:18.758Z,1012.21
2018-02-13T00:48:18.557Z,1012.18
2018-02-13T00:49:18.675Z,1012.21
2018-02-13T00:50:18.496Z,1012.21
2018-02-13T00:51:18.581Z,1012.19
2018-02-13T00:52:18.435Z,1012.19
2018-02-13T00:53:18.605Z,1012.21
2018-02-13T00:54:18.370Z,1012.20
2018-02-13T00:55:18.513Z,1012.19
2018-02-13T00:56:18.306Z,1012.17
2018-02-13T00:57:18.425Z,1012.17
2018-02-13T00:58:18.245Z,1012.19
2018-02-13T00:59:18.331Z,1012.16
2018-02-13T01:00:18.177Z,1012.11
2018-02-13T01:01:18.245Z,1012.19
2018-02-13T01:02:18.120Z,1012.13
2018-02-13T01:03:18.158Z,1012.14
2018-02-13T01:04:18.059Z,1012.13
2018-02-13T01:05:18.066Z,1012.15
2018-02-13T01:06:17.991Z,1012.12
2018-02-13T01:07:18.079Z,1012.11
2018-02-13T01:08:17.928Z,1012.13
2018-02-13T01:09:17.990Z,1012.14
2018-02-13T01:10:17.873Z,1012.09
2018-02-13T01:11:17.915Z,1012.07
2018-02-13T01:12:17.803Z,1012.07
2018-02-13T01:13:17.812Z,1012.12
2018-02-13T01:14:17.741Z,1012.09
2018-02-13T01:15:17.826Z,1012.10
2018-02-13T01:16:17.682Z,1012.10
2018-02-13T01:17:17.737Z,1012.06
2018-02-13T01:18:17.615Z,1012.07
2018-02-13T01:19:17.647Z,1012.05
2018-02-13T01:20:17.553Z,1012.04
2018-02-13T01:21:17.563Z,1012.04
2018-02-13T01:22:17.487Z,1012.04
2018-02-13T01:23:17.577Z,1012.05
2018-02-13T01:24:17.422Z,1012.07
2018-02-13T01:25:17.486Z,1012.05
2018-02-13T01:26:17.361Z,1012.00
2018-02-13T01:27:17.396Z,1012.00
2018-02-13T01:28:17.295Z,1012.01
2018-02-13T01:29:17.309Z,1011.98
2018-02-13T01:30:17.232Z,1011.96
2018-02-13T01:31:17.324Z,1011.94
2018-02-13T01:32:17.171Z,1011.96
2018-02-13T01:33:17.237Z,1011.92
2018-02-13T01:34:17.110Z,1011.92
2018-02-13T01:35:17.143Z,1011.95
2018-02-13T01:36:17.048Z,1011.90
2018-02-13T01:37:17.162Z,1011.95
2018-02-13T01:38:16.981Z,1011.96
2018-02-13T01:39:17.073Z,1011.93
2018-02-13T01:40:16.920Z,1011.94
2018-02-13T01:41:16.982Z,1011.98
2018-02-13T01:42:16.855Z,1011.89
2018-02-13T01:43:16.893Z,1011.91
2018-02-13T01:44:16.792Z,1011.89
2018-02-13T01:45:16.909Z,1011.90
2018-02-13T01:46:16.730Z,1011.91
2018-02-13T01:47:16.822Z,1011.90
2018-02-13T01:48:16.666Z,1011.87
2018-02-13T01:49:16.732Z,1011.89
2018-02-13T01:50:16.603Z,1011.89
2018-02-13T01:51:16.645Z,1011.88
2018-02-13T01:52:16.539Z,1011.88
2018-02-13T01:53:16.658Z,1011.85
2018-02-13T01:54:16.475Z,1011.85
2018-02-13T01:55:16.568Z,1011.82
2018-02-13T01:56:16.413Z,1011.83
2018-02-13T01:57:16.479Z,1011.85
2018-02-13T01:58:16.349Z,1011.85
2018-02-13T01:59:16.391Z,1011.85
2018-02-13T02:00:16.287Z,1011.85
2018-02-13T02:01:16.403Z,1011.80
2018-02-13T02:02:16.223Z,1011.82
2018-02-13T02:03:16.320Z,1011.83
2018-02-13T02:04:16.158Z,1011.82
2018-02-13T02:05:16.234Z,1011.82
2018-02-13T02:06:16.095Z,1011.84
2018-02-13T02:07:16.140Z,1011.81
2018-02-13T02:08:16.032Z,1011.82
2018-02-13T02:09:16.155Z,1011.80
2018-02-13T02:10:15.968Z,1011.80
2018-02-13T02:11:16.067Z,1011.78
2018-02-13T02:12:15.908Z,1011.76
2018-02-13T02:13:15.978Z,1011.77
2018-02-13T02:14:15.843Z,1011.74
2018-02-13T02:15:15.888Z,1011.75
2018-02-13T02:16:15.775Z,1011.72
2018-02-13T02:17:15.904Z,1011.70
2018-02-13T02:18:15.713Z,1011.73
2018-02-13T02:19:15.816Z,1011.68
2018-02-13T02:20:15.657Z,1011.68
2018-02-13T02:21:15.724Z,1011.71
2018-02-13T02:22:15.585Z,1011.73
2018-02-13T02:23:15.643Z,1011.66
2018-02-13T02:24:15.525Z,1011.69
2018-02-13T02:25:15.652Z,1011.68
2018-02-13T02:26:15.460Z,1011.66
2018-02-13T02:27:15.562Z,1011.70
2018-02-13T02:28:15.394Z,1011.69
2018-02-13T02:29:15.476Z,1011.69
2018-02-13T02:30:15.333Z,1011.68
2018-02-13T02:31:15.388Z,1011.66
2018-02-13T02:32:15.268Z,1011.64
2018-02-13T02:33:15.400Z,1011.67
2018-02-13T02:34:15.206Z,1011.64
2018-02-13T02:35:15.325Z,1011.63
2018-02-13T02:36:15.145Z,1011.61
2018-02-13T02:37:15.224Z,1011.64
2018-02-13T02:38:15.081Z,1011.63
2018-02-13T02:39:15.235Z,1011.59
2018-02-13T02:40:15.013Z,1011.57
2018-02-13T02:41:15.151Z,1011.60
2018-02-13T02:42:14.953Z,1011.51
2018-02-13T02:43:15.060Z,1011.54
2018-02-13T02:44:14.887Z,1011.54
2018-02-13T02:45:14.973Z,1011.47
2018-02-13T02:46:14.823Z,1011.47
2018-02-13T02:47:14.990Z,1011.45
2018-02-13T02:48:14.759Z,1011.47
2018-02-13T02:49:14.897Z,1011.46
2018-02-13T02:50:14.695Z,1011.46
2018-02-13T02:51:14.807Z,1011.45
2018-02-13T02:52:14.632Z,1011.45
2018-02-13T02:53:14.719Z,1011.44
2018-02-13T02:54:14.571Z,1011.42
2018-02-13T02:55:14.734Z,1011.41
2018-02-13T02:56:14.503Z,1011.39
2018-02-13T02:57:14.644Z,1011.39
2018-02-13T02:58:14.442Z,1011.37
2018-02-13T02:59:14.558Z,1011.36
2018-02-13T03:00:14.377Z,1011.38
2018-02-13T03:01:14.470Z,1011.33
2018-02-13T03:02:14.316Z,1011.31
2018-02-13T03:03:14.484Z,1011.34
2018-02-13T03:04:14.252Z,1011.32
2018-02-13T03:05:14.394Z,1011.32
2018-02-13T03:06:14.187Z,1011.30
2018-02-13T03:07:14.306Z,1011.33
2018-02-13T03:08:14.125Z,1011.33
2018-02-13T03:09:14.217Z,1011.30
2018-02-13T03:10:14.067Z,1011.31
2018-02-13T03:11:14.231Z,1011.35
2018-02-13T03:12:13.996Z,1011.29
2018-02-13T03:13:14.142Z,1011.31
2018-02-13T03:14:13.932Z,1011.25
2018-02-13T03:15:14.055Z,1011.28
2018-02-13T03:16:13.872Z,1011.26
2018-02-13T03:17:13.968Z,1011.27
2018-02-13T03:18:13.808Z,1011.27
2018-02-13T03:19:13.979Z,1011.26
2018-02-13T03:20:13.741Z,1011.26
2018-02-13T03:21:13.789Z,1011.22
2018-02-13T03:22:13.678Z,1011.20
2018-02-13T03:23:13.700Z,1011.20
2018-02-13T03:24:13.665Z,1011.19
2018-02-13T03:25:13.612Z,1011.19
2018-02-13T03:26:13.550Z,1011.16
2018-02-13T03:27:13.629Z,1011.18
2018-02-13T03:28:13.486Z,1011.19
2018-02-13T03:29:13.538Z,1011.10
2018-02-13T03:30:13.423Z,1011.10
2018-02-13T03:31:13.449Z,1011.11
2018-02-13T03:32:13.360Z,1011.11
2018-02-13T03:33:13.362Z,1011.13
2018-02-13T03:34:13.290Z,1011.10
2018-02-13T03:35:13.373Z,1011.09
2018-02-13T03:36:13.230Z,1011.08
2018-02-13T03:37:13.288Z,1011.06
2018-02-13T03:38:13.168Z,1011.02
2018-02-13T03:39:13.199Z,1011.02
2018-02-13T03:40:13.106Z,1011.03
2018-02-13T03:41:13.115Z,1011.01
2018-02-13T03:42:13.098Z,1010.99
2018-02-13T03:43:13.122Z,1010.99
2018-02-13T03:44:12.976Z,1010.99
2018-02-13T03:45:13.032Z,1010.93
2018-02-13T03:46:12.912Z,1010.96
2018-02-13T03:47:12.946Z,1010.99
2018-02-13T03:48:12.851Z,1010.96
2018-02-13T03:49:12.855Z,1010.96
2018-02-13T03:50:12.783Z,1010.98
2018-02-13T03:51:12.871Z,1010.98
2018-02-13T03:52:12.724Z,1010.97
2018-02-13T03:53:12.780Z,1010.97
2018-02-13T03:54:12.663Z,1010.95
2018-02-13T03:55:12.692Z,1010.95
2018-02-13T03:56:12.596Z,1010.93
2018-02-13T03:57:12.707Z,1010.95
2018-02-13T03:58:12.532Z,1010.95
2018-02-13T03:59:12.618Z,1010.91
2018-02-13T04:00:12.471Z,1010.86
2018-02-13T04:01:12.530Z,1010.91
2018-02-13T04:02:12.405Z,1010.89
2018-02-13T04:03:12.477Z,1010.89
2018-02-13T04:04:12.340Z,1010.88
2018-02-13T04:05:12.454Z,1010.86
2018-02-13T04:06:12.276Z,1010.89
2018-02-13T04:07:12.371Z,1010.86
2018-02-13T04:08:12.213Z,1010.88
2018-02-13T04:09:12.278Z,1010.87
2018-02-13T04:10:12.147Z,1010.84
2018-02-13T04:11:12.189Z,1010.86
2018-02-13T04:12:12.084Z,1010.82
2018-02-13T04:13:12.205Z,1010.82
2018-02-13T04:14:12.019Z,1010.81
2018-02-13T04:15:12.114Z,1010.75
2018-02-13T04:16:11.953Z,1010.77
2018-02-13T04:17:12.029Z,1010.75
2018-02-13T04:18:11.891Z,1010.76
2018-02-13T04:19:11.937Z,1010.76
2018-02-13T04:20:11.829Z,1010.77
2018-02-13T04:21:11.952Z,1010.75
2018-02-13T04:22:11.764Z,1010.74
2018-02-13T04:23:11.864Z,1010.74
2018-02-13T04:24:11.698Z,1010.76
2018-02-13T04:25:11.773Z,1010.73
2018-02-13T04:26:11.635Z,1010.74
2018-02-13T04:27:11.687Z,1010.75
2018-02-13T04:28:11.571Z,1010.76
2018-02-13T04:29:11.701Z,1010.73
2018-02-13T04:30:11.507Z,1010.71
2018-02-13T04:31:11.611Z,1010.71
2018-02-13T04:32:11.445Z,1010.71
2018-02-13T04:33:11.523Z,1010.70
2018-02-13T04:34:11.384Z,1010.72
2018-02-13T04:35:11.435Z,1010.71
2018-02-13T04:36:11.315Z,1010.69
2018-02-13T04:37:11.451Z,1010.68
2018-02-13T04:38:11.254Z,1010.68
2018-02-13T04:39:11.360Z,1010.68
2018-02-13T04:40:11.191Z,1010.67
2018-02-13T04:41:11.276Z,1010.67
2018-02-13T04:42:11.122Z,1010.67
2018-02-13T04:43:11.186Z,1010.68
2018-02-13T04:44:11.058Z,1010.66
2018-02-13T04:45:11.197Z,1010.66
2018-02-13T04:46:10.996Z,1010.63
2018-02-13T04:47:11.111Z,1010.67
2018-02-13T04:48:10.931Z,1010.64
2018-02-13T04:49:11.020Z,1010.63
2018-02-13T04:50:10.866Z,1010.60
2018-02-13T04:51:10.933Z,1010.59
2018-02-13T04:52:10.802Z,1010.57
2018-02-13T04:53:10.942Z,1010.56
2018-02-13T04:54:10.742Z,1010.56
2018-02-13T04:55:10.858Z,1010.57
2018-02-13T04:56:10.677Z,1010.53
2018-02-13T04:57:10.769Z,1010.55
2018-02-13T04:58:10.612Z,1010.56
2018-02-13T04:59:10.683Z,1010.53
2018-02-13T05:00:10.545Z,1010.53
2018-02-13T05:01:10.695Z,1010.55
2018-02-13T05:02:10.485Z,1010.51
2018-02-13T05:03:10.607Z,1010.53
2018-02-13T05:04:10.415Z,1010.55
2018-02-13T05:05:10.521Z,1010.51
2018-02-13T05:06:10.353Z,1010.45
2018-02-13T05:07:10.427Z,1010.49
2018-02-13T05:08:10.288Z,1010.50
2018-02-13T05:09:10.446Z,1010.45
2018-02-13T05:10:10.221Z,1010.45
2018-02-13T05:11:10.356Z,1010.43
2018-02-13T05:12:10.165Z,1010.45
2018-02-13T05:13:10.268Z,1010.46
2018-02-13T05:14:10.097Z,1010.42
2018-02-13T05:15:10.178Z,1010.45
2018-02-13T05:16:10.029Z,1010.42
2018-02-13T05:17:10.190Z,1010.43
2018-02-13T05:18:09.966Z,1010.44
2018-02-13T05:19:10.103Z,1010.44
2018-02-13T05:20:09.901Z,1010.43
2018-02-13T05:21:10.015Z,1010.43
2018-02-13T05:22:09.841Z,1010.45
2018-02-13T05:23:09.927Z,1010.38
2018-02-13T05:24:09.774Z,1010.42
2018-02-13T05:25:09.941Z,1010.39
2018-02-13T05:26:09.761Z,1010.45
2018-02-13T05:27:09.852Z,1010.44
2018-02-13T05:28:09.645Z,1010.41
2018-02-13T05:29:09.766Z,1010.36
2018-02-13T05:30:09.580Z,1010.38
2018-02-13T05:31:09.676Z,1010.38
2018-02-13T05:32:09.515Z,1010.36
2018-02-13T05:33:09.690Z,1010.36
2018-02-13T05:34:09.452Z,1010.38
2018-02-13T05:35:09.594Z,1010.35
2018-02-13T05:36:09.391Z,1010.36
2018-02-13T05:37:09.507Z,1010.34
2018-02-13T05:38:09.324Z,1010.33
2018-02-13T05:39:09.424Z,1010.33
2018-02-13T05:40:09.260Z,1010.34
2018-02-13T05:41:09.437Z,1010.32
2018-02-13T05:42:09.197Z,1010.33
2018-02-13T05:43:09.347Z,1010.29
2018-02-13T05:44:09.131Z,1010.29
2018-02-13T05:45:09.157Z,1010.29
2018-02-13T05:46:09.057Z,1010.26
2018-02-13T05:47:09.069Z,1010.27
2018-02-13T05:48:08.992Z,1010.28
2018-02-13T05:49:09.085Z,1010.25
2018-02-13T05:50:08.951Z,1010.26
2018-02-13T05:51:08.998Z,1010.22
2018-02-13T05:52:08.872Z,1010.24
2018-02-13T05:53:08.905Z,1010.26
2018-02-13T05:54:08.804Z,1010.23
2018-02-13T05:55:08.817Z,1010.24
2018-02-13T05:56:08.745Z,1010.18
2018-02-13T05:57:08.831Z,1010.24
2018-02-13T05:58:08.682Z,1010.22
2018-02-13T05:59:08.723Z,1010.19
2018-02-13T06:00:08.616Z,1010.24
2018-02-13T06:01:08.655Z,1010.18
2018-02-13T06:02:08.553Z,1010.18
2018-02-13T06:03:08.566Z,1010.22
2018-02-13T06:04:08.481Z,1010.18
2018-02-13T06:05:08.582Z,1010.16
2018-02-13T06:06:08.424Z,1010.19
2018-02-13T06:07:08.493Z,1010.21
2018-02-13T06:08:08.357Z,1010.22
2018-02-13T06:09:08.405Z,1010.20
2018-02-13T06:10:08.297Z,1010.20
2018-02-13T06:11:08.316Z,1010.17
2018-02-13T06:12:08.232Z,1010.17
2018-02-13T06:13:08.329Z,1010.14
2018-02-13T06:14:08.169Z,1010.20
2018-02-13T06:15:08.241Z,1010.18
2018-02-13T06:16:08.101Z,1010.14
2018-02-13T06:17:08.151Z,1010.10
2018-02-13T06:18:08.040Z,1010.16
2018-02-13T06:19:08.064Z,1010.16
2018-02-13T06:20:07.973Z,1010.14
2018-02-13T06:21:08.078Z,1010.15
2018-02-13T06:22:07.909Z,1010.09
2018-02-13T06:23:07.990Z,1010.10
2018-02-13T06:24:07.844Z,1010.09
2018-02-13T06:25:07.906Z,1010.07
2018-02-13T06:26:07.783Z,1010.06
2018-02-13T06:27:07.816Z,1010.09
2018-02-13T06:28:07.717Z,1010.11
2018-02-13T06:29:07.827Z,1010.11
2018-02-13T06:30:07.651Z,1010.11
2018-02-13T06:31:07.738Z,1010.12
2018-02-13T06:32:07.588Z,1010.11
2018-02-13T06:33:07.648Z,1010.11
2018-02-13T06:34:07.523Z,1010.13
2018-02-13T06:35:07.560Z,1010.13
2018-02-13T06:36:07.460Z,1010.11
2018-02-13T06:37:07.575Z,1010.13
2018-02-13T06:38:07.395Z,1010.13
2018-02-13T06:39:07.488Z,1010.15
2018-02-13T06:40:07.328Z,1010.18
2018-02-13T06:41:07.399Z,1010.15
2018-02-13T06:42:07.264Z,1010.15
2018-02-13T06:43:07.309Z,1010.20
2018-02-13T06:44:07.200Z,1010.17
2018-02-13T06:45:07.321Z,1010.16
2018-02-13T06:46:07.136Z,1010.20
2018-02-13T06:47:07.233Z,1010.14
2018-02-13T06:48:07.068Z,1010.16
2018-02-13T06:49:07.144Z,1010.16
2018-02-13T06:50:07.007Z,1010.11
2018-02-13T06:51:07.056Z,1010.14
2018-02-13T06:52:06.940Z,1010.13
2018-02-13T06:53:07.071Z,1010.13
2018-02-13T06:54:06.877Z,1010.16
2018-02-13T06:55:06.982Z,1010.15
2018-02-13T06:56:06.815Z,1010.13
2018-02-13T06:57:06.901Z,1010.18
2018-02-13T06:58:06.747Z,1010.18
2018-02-13T06:59:06.810Z,1010.17
2018-02-13T07:00:06.685Z,1010.11
2018-02-13T07:01:06.818Z,1010.17
2018-02-13T07:02:06.618Z,1010.16
2018-02-13T07:03:06.726Z,1010.15
2018-02-13T07:04:06.555Z,1010.13
2018-02-13T07:05:06.642Z,1010.14
2018-02-13T07:06:06.492Z,1010.15
2018-02-13T07:07:06.553Z,1010.12
2018-02-13T07:08:06.425Z,1010.14
2018-02-13T07:09:06.568Z,1010.16
2018-02-13T07:10:06.360Z,1010.13
2018-02-13T07:11:06.492Z,1010.12
2018-02-13T07:12:06.298Z,1010.12
2018-02-13T07:13:06.391Z,1010.18
2018-02-13T07:14:06.230Z,1010.17
2018-02-13T07:15:06.299Z,1010.18
2018-02-13T07:16:06.165Z,1010.21
2018-02-13T07:17:06.316Z,1010.15
2018-02-13T07:18:06.100Z,1010.18
2018-02-13T07:19:06.226Z,1010.15
2018-02-13T07:20:06.039Z,1010.14
2018-02-13T07:21:06.139Z,1010.14
2018-02-13T07:22:05.975Z,1010.18
2018-02-13T07:23:06.053Z,1010.18
2018-02-13T07:24:05.907Z,1010.15
2018-02-13T07:25:06.062Z,1010.16
2018-02-13T07:26:05.843Z,1010.17
2018-02-13T07:27:05.973Z,1010.19
2018-02-13T07:28:05.780Z,1010.16
2018-02-13T07:29:05.890Z,1010.13
2018-02-13T07:30:05.714Z,1010.16
2018-02-13T07:31:05.797Z,1010.15
2018-02-13T07:32:05.654Z,1010.14
2018-02-13T07:33:05.812Z,1010.16
2018-02-13T07:34:05.588Z,1010.13
2018-02-13T07:35:05.724Z,1010.13
2018-02-13T07:36:05.522Z,1010.12
2018-02-13T07:37:05.636Z,1010.12
2018-02-13T07:38:05.459Z,1010.09
2018-02-13T07:39:05.545Z,1010.09
2018-02-13T07:40:05.392Z,1010.08
2018-02-13T07:41:05.562Z,1010.05
2018-02-13T07:42:05.326Z,1010.06
2018-02-13T07:43:05.470Z,1010.07
2018-02-13T07:44:05.261Z,1010.07
2018-02-13T07:45:05.434Z,1010.03
2018-02-13T07:46:05.201Z,1010.04
2018-02-13T07:47:05.292Z,1010.03
2018-02-13T07:48:05.128Z,1010.00
2018-02-13T07:49:05.307Z,1010.05
2018-02-13T07:50:05.072Z,1009.95
2018-02-13T07:51:05.133Z,1009.99
2018-02-13T07:52:05.005Z,1009.93
2018-02-13T07:53:05.130Z,1009.95
2018-02-13T07:54:04.940Z,1009.97
2018-02-13T07:55:05.043Z,1009.97
2018-02-13T07:56:04.876Z,1009.98
2018-02-13T07:57:05.055Z,1009.99
2018-02-13T07:58:04.817Z,1009.96
2018-02-13T07:59:05.888Z,1009.96
2018-02-13T08:00:04.745Z,1009.92
2018-02-13T08:01:04.878Z,1009.95
2018-02-13T08:02:04.682Z,1009.91
2018-02-13T08:03:04.653Z,1009.94
2018-02-13T08:04:04.697Z,1009.92
2018-02-13T08:05:04.586Z,1009.90
2018-02-13T08:06:04.602Z,1009.92
2018-02-13T08:07:04.523Z,1009.88
2018-02-13T08:08:04.492Z,1009.84
2018-02-13T08:09:04.455Z,1009.86
2018-02-13T08:10:04.533Z,1009.90
2018-02-13T08:11:04.398Z,1009.84
2018-02-13T08:12:04.445Z,1009.80
2018-02-13T08:13:04.332Z,1009.87
2018-02-13T08:14:04.354Z,1009.82
2018-02-13T08:15:04.270Z,1009.83
2018-02-13T08:16:04.268Z,1009.78
2018-02-13T08:17:04.202Z,1009.77
2018-02-13T08:18:04.281Z,1009.81
2018-02-13T08:19:04.139Z,1009.77
2018-02-13T08:20:04.191Z,1009.80
2018-02-13T08:21:04.101Z,1009.77
2018-02-13T08:22:04.113Z,1009.76
2018-02-13T08:23:04.007Z,1009.81
2018-02-13T08:24:04.022Z,1009.79
2018-02-13T08:25:03.947Z,1009.75
2018-02-13T08:26:04.029Z,1009.76
2018-02-13T08:27:03.872Z,1009.79
2018-02-13T08:28:04.002Z,1009.80
2018-02-13T08:29:03.817Z,1009.85
2018-02-13T08:30:03.857Z,1009.80
2018-02-13T08:31:03.753Z,1009.83
2018-02-13T08:32:03.791Z,1009.80
2018-02-13T08:33:03.691Z,1009.77
2018-02-13T08:34:03.672Z,1009.78
2018-02-13T08:35:03.624Z,1009.78
2018-02-13T08:36:03.684Z,1009.76
2018-02-13T08:37:03.562Z,1009.83
2018-02-13T08:38:03.601Z,1009.82
2018-02-13T08:39:03.499Z,1009.84
2018-02-13T08:40:03.513Z,1009.86
2018-02-13T08:41:03.433Z,1009.83
2018-02-13T08:42:03.422Z,1009.81
2018-02-13T08:43:03.373Z,1009.90
2018-02-13T08:44:03.437Z,1009.84
2018-02-13T08:45:03.325Z,1009.82
2018-02-13T08:46:03.352Z,1009.82
2018-02-13T08:47:03.244Z,1009.85
2018-02-13T08:48:03.277Z,1009.83
2018-02-13T08:49:03.181Z,1009.84
2018-02-13T08:50:03.171Z,1009.81
2018-02-13T08:51:03.118Z,1009.84
2018-02-13T08:52:03.185Z,1009.83
2018-02-13T08:53:03.056Z,1009.81
2018-02-13T08:54:03.097Z,1009.83
2018-02-13T08:55:02.993Z,1009.81
2018-02-13T08:56:03.009Z,1009.77
2018-02-13T08:57:02.930Z,1009.74
2018-02-13T08:58:02.920Z,1009.78
2018-02-13T08:59:02.867Z,1009.77
2018-02-13T09:00:02.933Z,1009.83
2018-02-13T09:01:02.805Z,1009.78
2018-02-13T09:02:02.792Z,1009.69
2018-02-13T09:03:02.741Z,1009.70
2018-02-13T09:04:02.859Z,1009.75
2018-02-13T09:05:02.679Z,1009.67
2018-02-13T09:06:02.771Z,1009.71
2018-02-13T09:07:02.616Z,1009.75
2018-02-13T09:08:02.583Z,1009.75
2018-02-13T09:09:02.555Z,1009.69
2018-02-13T09:10:02.592Z,1009.75
2018-02-13T09:11:02.493Z,1009.72
2018-02-13T09:12:02.560Z,1009.72
2018-02-13T09:13:02.431Z,1009.75
2018-02-13T09:14:02.519Z,1009.71
2018-02-13T09:15:02.380Z,1009.73
2018-02-13T09:16:02.432Z,1009.70
2018-02-13T09:17:02.309Z,1009.64
2018-02-13T09:18:02.343Z,1009.66
2018-02-13T09:19:02.249Z,1009.66
2018-02-13T09:20:02.356Z,1009.61
2018-02-13T09:21:02.181Z,1009.66
2018-02-13T09:22:02.267Z,1009.64
2018-02-13T09:23:02.119Z,1009.66
2018-02-13T09:24:02.178Z,1009.66
2018-02-13T09:25:02.058Z,1009.66
2018-02-13T09:26:02.194Z,1009.62
2018-02-13T09:27:01.994Z,1009.69
2018-02-13T09:28:02.101Z,1009.66
2018-02-13T09:29:01.936Z,1009.67
2018-02-13T09:30:02.019Z,1009.64
2018-02-13T09:31:01.874Z,1009.59
2018-02-13T09:32:01.926Z,1009.73
2018-02-13T09:33:01.811Z,1010.00
2018-02-13T09:34:01.933Z,1010.19
2018-02-13T09:35:01.754Z,1010.24
2018-02-13T09:36:01.849Z,1010.30
2018-02-13T09:37:01.690Z,1010.28
2018-02-13T09:38:01.764Z,1010.32
2018-02-13T09:39:01.645Z,1010.32
2018-02-13T09:40:01.778Z,1010.34
2018-02-13T09:41:01.586Z,1010.28
2018-02-13T09:42:01.688Z,1010.28
2018-02-13T09:43:01.540Z,1010.37
2018-02-13T09:44:01.597Z,1010.35
2018-02-13T09:45:01.486Z,1010.39
2018-02-13T09:46:01.617Z,1010.40
2018-02-13T09:47:01.442Z,1010.33
2018-02-13T09:48:01.529Z,1010.34
2018-02-13T09:49:01.400Z,1010.36
2018-02-13T09:50:01.541Z,1010.36
2018-02-13T09:51:01.354Z,1010.32
2018-02-13T09:52:01.452Z,1010.35
2018-02-13T09:53:01.318Z,1010.32
2018-02-13T09:54:01.466Z,1010.38
2018-02-13T09:55:01.271Z,1010.34
2018-02-13T09:56:01.385Z,1010.41
2018-02-13T09:57:01.237Z,1010.38
2018-02-13T09:58:01.387Z,1010.35
2018-02-13T09:59:01.200Z,1010.41
2018-02-13T10:00:01.201Z,1010.54
2018-02-13T10:01:01.166Z,1010.68
2018-02-13T10:02:01.160Z,1010.76
2018-02-13T10:03:01.130Z,1010.63
2018-02-13T10:04:01.113Z,1010.70
2018-02-13T10:05:01.089Z,1010.67
2018-02-13T10:06:01.139Z,1010.68
2018-02-13T10:07:01.056Z,1010.63
2018-02-13T10:08:01.154Z,1010.61
2018-02-13T10:09:01.037Z,1010.64
2018-02-13T10:10:01.066Z,1010.61
2018-02-13T10:11:01.001Z,1010.67
2018-02-13T10:12:01.078Z,1010.69
2018-02-13T10:13:00.971Z,1010.80
2018-02-13T10:14:00.982Z,1010.72
2018-02-13T10:15:00.941Z,1010.68
2018-02-13T10:16:01.002Z,1010.70
2018-02-13T10:17:00.911Z,1010.68
2018-02-13T10:18:00.919Z,1010.64
2018-02-13T10:19:00.883Z,1010.69
2018-02-13T10:20:00.930Z,1010.69
2018-02-13T10:21:00.911Z,1010.69
2018-02-13T10:22:00.944Z,1010.62
2018-02-13T10:23:00.827Z,1010.57
2018-02-13T10:24:00.857Z,1010.60
2018-02-13T10:25:00.802Z,1010.62
2018-02-13T10:26:00.867Z,1010.55
2018-02-13T10:27:00.776Z,1010.53
2018-02-13T10:28:00.793Z,1010.56
2018-02-13T10:29:00.768Z,1010.59
2018-02-13T10:30:00.830Z,1010.64
2018-02-13T10:31:00.765Z,1010.58
2018-02-13T10:32:00.811Z,1010.61
2018-02-13T10:33:00.696Z,1010.62
2018-02-13T10:34:00.720Z,1010.56
2018-02-13T10:35:00.675Z,1010.58
2018-02-13T10:36:00.739Z,1010.62
2018-02-13T10:37:00.669Z,1010.58
2018-02-13T10:38:00.737Z,1010.62
2018-02-13T10:39:00.631Z,1010.60
2018-02-13T10:40:00.658Z,1010.59
2018-02-13T10:41:00.603Z,1010.54
2018-02-13T10:42:00.676Z,1010.55
2018-02-13T10:43:00.589Z,1010.54
2018-02-13T10:44:00.688Z,1010.46
2018-02-13T10:45:00.561Z,1010.47
2018-02-13T10:46:00.612Z,1010.46
2018-02-13T10:47:00.541Z,1010.51
2018-02-13T10:48:00.658Z,1010.48
2018-02-13T10:49:00.520Z,1010.43
2018-02-13T10:50:00.530Z,1010.52
2018-02-13T10:51:00.495Z,1010.48
2018-02-13T10:52:00.536Z,1010.50
2018-02-13T10:53:00.473Z,1010.51
2018-02-13T10:54:00.551Z,1010.53
2018-02-13T10:55:00.451Z,1010.53
2018-02-13T10:56:00.467Z,1010.53
2018-02-13T10:57:00.431Z,1010.49
2018-02-13T10:58:00.478Z,1010.48
2018-02-13T10:59:00.409Z,1010.44
2018-02-13T11:00:00.483Z,1010.49
2018-02-13T11:01:00.400Z,1010.57
2018-02-13T11:02:00.402Z,1010.54
2018-02-13T11:03:00.367Z,1010.55
2018-02-13T11:04:00.415Z,1010.55
2018-02-13T11:05:00.353Z,1010.50
2018-02-13T11:06:00.429Z,1010.50
2018-02-13T11:07:00.327Z,1010.45
2018-02-13T11:08:00.340Z,1010.52
2018-02-13T11:09:00.295Z,1010.58
2018-02-13T11:10:00.361Z,1010.52
2018-02-13T11:11:00.282Z,1010.53
2018-02-13T11:12:00.368Z,1010.44
2018-02-13T11:13:00.260Z,1010.47
2018-02-13T11:14:00.280Z,1010.43
2018-02-13T11:15:00.238Z,1010.41
2018-02-13T11:16:00.294Z,1010.40
2018-02-13T11:17:00.220Z,1010.38
2018-02-13T11:18:00.310Z,1010.41
2018-02-13T11:19:00.210Z,1010.39
2018-02-13T11:20:00.218Z,1010.29
2018-02-13T11:21:00.179Z,1010.37
2018-02-13T11:22:00.234Z,1010.42
2018-02-13T11:23:00.158Z,1010.42
2018-02-13T11:24:00.250Z,1010.38
2018-02-13T11:25:00.139Z,1010.33
2018-02-13T11:26:00.161Z,1010.34
2018-02-13T11:27:00.118Z,1010.35
2018-02-13T11:28:00.172Z,1010.32
2018-02-13T11:29:00.102Z,1010.29
2018-02-13T11:30:00.188Z,1010.25
2018-02-13T11:31:00.084Z,1010.30
2018-02-13T11:32:00.098Z,1010.20
2018-02-13T11:33:00.067Z,1010.23
2018-02-13T11:34:00.119Z,1010.29
2018-02-13T11:35:00.049Z,1010.32
2018-02-13T11:36:00.128Z,1010.23
2018-02-13T11:37:00.028Z,1010.32
2018-02-13T11:38:00.039Z,1010.31
2018-02-13T11:39:00.014Z,1010.35
2018-02-13T11:40:00.055Z,1010.34
2018-02-13T11:40:59.986Z,1010.29
2018-02-13T11:42:00.065Z,1010.29
2018-02-13T11:42:59.965Z,1010.38
2018-02-13T11:43:59.977Z,1010.35
2018-02-13T11:44:59.947Z,1010.30
2018-02-13T11:45:59.991Z,1010.32
2018-02-13T11:46:59.925Z,1010.39
2018-02-13T11:48:00.010Z,1010.39
2018-02-13T11:48:59.905Z,1010.35
2018-02-13T11:49:59.917Z,1010.44
2018-02-13T11:50:59.883Z,1010.55
2018-02-13T11:51:59.928Z,1010.73
2018-02-13T11:52:59.864Z,1010.84
2018-02-13T11:53:59.943Z,1010.70
2018-02-13T11:54:59.842Z,1010.68
2018-02-13T11:55:59.856Z,1010.64
2018-02-13T11:56:59.822Z,1010.68
2018-02-13T11:57:59.870Z,1010.69
2018-02-13T11:58:59.801Z,1010.65
2018-02-13T11:59:59.883Z,1010.64
2018-02-13T12:00:59.780Z,1010.62
2018-02-13T12:01:59.794Z,1010.60
2018-02-13T12:02:59.758Z,1010.61
2018-02-13T12:03:59.808Z,1010.62
2018-02-13T12:04:59.743Z,1010.55